Terminal Aerodrome Forecast
Issued by NWS

Home | Current Version | Previous Version | Text Only | Print | Product List | Glossary On
Versions: 1 2 3 4 5 6 7 8 9 10 11 12 13 14 15 16 17 18
097
FTUS46 KHNX 072330
TAFMCE
TAF
KMCE 072330Z 0800/0824 VRB03KT P6SM BKN060 OVC100
      TEMPO 0802/0806 5SM -RA BR BKN050 OVC060
     FM080600 13011KT P6SM -RA BKN030 OVC050
     FM081300 12013KT 5SM -RA BKN020 OVC030=

USA.gov is the U.S. government's official web portal to all federal, state and local government web resources and services.